Time;durP1;ratioP1;P1;durP2;ratioP2;P2;SDS_P1;SDS_P2;PMS_P1;PMS_P2;Temp;Humidity;BMP_temperature;BMP_pressure;BME280_temperature;BME280_humidity;BME280_pressure;Samples;Min_cycle;Max_cycle;Signal;HPM_P1;HPM_P2
2022/07/05 00:00:34;;;;;;;;;2.00;2.00;;;;;;;;4886437;28;45449;-71
2022/07/05 00:03:00;;;;;;;;;2.67;2.00;;;;;;;;4885331;29;45577;-70
2022/07/05 00:05:25;;;;;;;;;2.00;2.00;;;;;;;;4887265;28;46598;-71
2022/07/05 00:07:50;;;;;;;;;2.00;2.00;;;;;;;;4888047;29;45384;-71
2022/07/05 00:10:15;;;;;;;;;2.00;1.00;;;;;;;;4891341;29;45481;-71
2022/07/05 00:12:40;;;;;;;;;3.67;2.00;;;;;;;;4899015;28;45237;-71
2022/07/05 00:15:06;;;;;;;;;0.00;0.00;;;;;;;;4888778;28;45713;-71
2022/07/05 00:17:31;;;;;;;;;1.00;1.00;;;;;;;;4893690;29;45292;-71
2022/07/05 00:19:57;;;;;;;;;2.00;2.00;;;;;;;;4888412;28;45156;-71
2022/07/05 00:22:22;;;;;;;;;1.67;1.67;;;;;;;;4894004;28;45941;-71
2022/07/05 00:24:47;;;;;;;;;3.33;2.33;;;;;;;;4886327;29;45266;-71
2022/07/05 00:27:12;;;;;;;;;4.00;2.00;;;;;;;;4885933;29;45452;-71
2022/07/05 00:29:37;;;;;;;;;2.00;2.00;;;;;;;;4888766;29;45451;-71
2022/07/05 00:32:03;;;;;;;;;3.67;2.33;;;;;;;;4885250;29;45449;-71
2022/07/05 00:34:28;;;;;;;;;5.33;2.00;;;;;;;;4891814;29;45368;-71
2022/07/05 00:36:53;;;;;;;;;4.00;3.33;;;;;;;;4884768;29;44838;-71
2022/07/05 00:39:18;;;;;;;;;3.00;3.00;;;;;;;;4895268;29;45536;-70
2022/07/05 00:41:44;;;;;;;;;1.00;1.00;;;;;;;;4887645;29;46016;-70
2022/07/05 00:44:10;;;;;;;;;2.33;1.67;;;;;;;;4895874;29;46331;-71
2022/07/05 00:46:36;;;;;;;;;3.00;3.00;;;;;;;;4896545;29;45429;-70
2022/07/05 00:49:02;;;;;;;;;4.00;3.00;;;;;;;;4897151;28;45486;-71
2022/07/05 00:51:31;;;;;;;;;3.00;3.00;;;;;;;;4876022;29;45456;-71
2022/07/05 00:53:58;;;;;;;;;3.00;3.00;;;;;;;;4892310;29;45391;-71
2022/07/05 00:56:23;;;;;;;;;3.33;2.00;;;;;;;;4884819;29;45194;-71
2022/07/05 00:58:49;;;;;;;;;1.33;1.33;;;;;;;;4898661;29;45280;-71
2022/07/05 01:01:16;;;;;;;;;3.00;1.67;;;;;;;;4881618;28;45722;-71
2022/07/05 01:03:41;;;;;;;;;2.00;2.00;;;;;;;;4901308;28;46578;-71
2022/07/05 01:06:09;;;;;;;;;2.00;2.00;;;;;;;;4884559;29;45456;-70
2022/07/05 01:08:36;;;;;;;;;3.00;1.00;;;;;;;;4884050;29;45329;-69
2022/07/05 01:11:02;;;;;;;;;3.00;2.00;;;;;;;;4874025;29;45236;-73
2022/07/05 01:13:27;;;;;;;;;0.00;0.00;;;;;;;;4888136;29;45166;-72
2022/07/05 01:15:53;;;;;;;;;2.00;2.00;;;;;;;;4874933;29;45223;-72
2022/07/05 01:18:20;;;;;;;;;4.00;3.00;;;;;;;;4890559;29;45231;-72
2022/07/05 01:20:47;;;;;;;;;2.00;2.00;;;;;;;;4879853;29;45303;-72
2022/07/05 01:23:12;;;;;;;;;4.00;2.00;;;;;;;;4896640;29;45555;-72
2022/07/05 01:25:37;;;;;;;;;4.33;3.00;;;;;;;;4876693;29;45457;-72
2022/07/05 01:28:03;;;;;;;;;3.00;3.00;;;;;;;;4888813;29;45302;-72
2022/07/05 01:30:28;;;;;;;;;2.00;2.00;;;;;;;;4879480;29;45435;-72
2022/07/05 01:32:53;;;;;;;;;1.67;1.67;;;;;;;;4880467;29;47204;-72
2022/07/05 01:35:23;;;;;;;;;2.00;2.00;;;;;;;;4884194;29;45356;-71
2022/07/05 01:37:48;;;;;;;;;2.00;2.00;;;;;;;;4887050;29;45238;-72
2022/07/05 01:40:14;;;;;;;;;1.33;1.00;;;;;;;;4880005;29;45559;-70
2022/07/05 01:42:39;;;;;;;;;2.00;2.00;;;;;;;;4898395;29;46516;-70
2022/07/05 01:45:04;;;;;;;;;2.00;2.00;;;;;;;;4887203;29;45400;-70
2022/07/05 01:47:31;;;;;;;;;2.00;2.00;;;;;;;;4899445;29;45253;-70
2022/07/05 01:49:58;;;;;;;;;2.00;2.00;;;;;;;;4895410;28;45353;-70
2022/07/05 01:52:24;;;;;;;;;1.00;1.00;;;;;;;;4899732;29;46924;-70
2022/07/05 01:54:49;;;;;;;;;2.00;2.00;;;;;;;;4897144;28;45459;-70
2022/07/05 01:57:14;;;;;;;;;1.67;1.33;;;;;;;;4887655;29;45405;-70
2022/07/05 01:59:40;;;;;;;;;2.00;2.00;;;;;;;;4892039;29;45263;-71
2022/07/05 02:02:06;;;;;;;;;3.67;1.00;;;;;;;;4891574;29;46665;-71
2022/07/05 02:04:33;;;;;;;;;3.33;3.33;;;;;;;;4896993;29;45333;-71
2022/07/05 02:06:58;;;;;;;;;2.00;2.00;;;;;;;;4893172;29;45352;-71
2022/07/05 02:09:24;;;;;;;;;2.00;2.00;;;;;;;;4890680;28;45672;-71
2022/07/05 02:11:49;;;;;;;;;2.00;2.00;;;;;;;;4885001;29;48031;-71
2022/07/05 02:14:14;;;;;;;;;1.00;1.00;;;;;;;;4887511;29;45209;-72
2022/07/05 02:16:40;;;;;;;;;2.67;2.00;;;;;;;;4880033;29;45300;-71
2022/07/05 02:19:05;;;;;;;;;2.67;2.67;;;;;;;;4889717;29;45395;-71
2022/07/05 02:21:30;;;;;;;;;2.00;2.00;;;;;;;;4883278;29;46282;-71
2022/07/05 02:23:55;;;;;;;;;2.00;2.00;;;;;;;;4904220;28;45505;-71
2022/07/05 02:26:21;;;;;;;;;3.00;3.00;;;;;;;;4889294;29;45360;-71
2022/07/05 02:28:46;;;;;;;;;1.00;1.00;;;;;;;;4892467;29;45288;-71
2022/07/05 02:31:11;;;;;;;;;4.67;3.00;;;;;;;;4877752;29;46194;-70
2022/07/05 02:33:37;;;;;;;;;2.00;2.00;;;;;;;;4878521;29;45405;-71
2022/07/05 02:36:07;;;;;;;;;3.00;2.00;;;;;;;;4881411;29;45620;-71
2022/07/05 02:38:32;;;;;;;;;2.33;2.00;;;;;;;;4890403;29;45507;-70
2022/07/05 02:40:57;;;;;;;;;2.00;2.00;;;;;;;;4884583;28;45544;-71
2022/07/05 02:43:22;;;;;;;;;3.33;1.00;;;;;;;;4883999;29;45270;-71
2022/07/05 02:45:47;;;;;;;;;1.33;1.33;;;;;;;;4886246;29;45263;-71
2022/07/05 02:48:13;;;;;;;;;1.33;1.33;;;;;;;;4891481;29;46791;-71
2022/07/05 02:50:38;;;;;;;;;3.00;3.00;;;;;;;;4887891;29;46183;-70
2022/07/05 02:53:03;;;;;;;;;1.00;1.00;;;;;;;;4897223;28;45241;-71
2022/07/05 02:55:28;;;;;;;;;2.00;1.00;;;;;;;;4892459;29;45566;-71
2022/07/05 02:57:53;;;;;;;;;2.00;2.00;;;;;;;;4895316;29;45411;-70
2022/07/05 03:00:19;;;;;;;;;4.00;2.67;;;;;;;;4891348;29;45732;-70
2022/07/05 03:02:44;;;;;;;;;2.00;2.00;;;;;;;;4900321;29;45188;-70
2022/07/05 03:05:09;;;;;;;;;3.00;3.00;;;;;;;;4894852;29;45376;-70
2022/07/05 03:07:34;;;;;;;;;3.00;3.00;;;;;;;;4895423;29;46998;-70
2022/07/05 03:10:00;;;;;;;;;3.00;3.00;;;;;;;;4893528;29;46093;-71
2022/07/05 03:12:25;;;;;;;;;4.00;4.00;;;;;;;;4890956;29;45423;-70
2022/07/05 03:14:50;;;;;;;;;5.00;4.00;;;;;;;;4891296;29;45503;-70
2022/07/05 03:17:15;;;;;;;;;3.00;3.00;;;;;;;;4884612;29;45158;-71
2022/07/05 03:19:40;;;;;;;;;5.00;4.00;;;;;;;;4895290;28;47110;-71
2022/07/05 03:22:06;;;;;;;;;4.00;4.00;;;;;;;;4885472;29;45352;-71
2022/07/05 03:24:31;;;;;;;;;3.33;3.33;;;;;;;;4895174;29;45467;-71
2022/07/05 03:26:56;;;;;;;;;6.67;4.00;;;;;;;;4882105;29;45784;-71
2022/07/05 03:29:21;;;;;;;;;4.67;4.67;;;;;;;;4893611;29;48059;-71
2022/07/05 03:31:47;;;;;;;;;6.33;3.00;;;;;;;;4874958;29;45264;-71
2022/07/05 03:34:12;;;;;;;;;4.67;4.67;;;;;;;;4884593;29;45553;-71
2022/07/05 03:36:37;;;;;;;;;6.00;4.00;;;;;;;;4882233;29;45989;-70
2022/07/05 03:39:02;;;;;;;;;5.00;5.00;;;;;;;;4892963;29;45630;-71
2022/07/05 03:41:28;;;;;;;;;5.00;5.00;;;;;;;;4888035;29;45455;-71
2022/07/05 03:43:53;;;;;;;;;7.33;5.33;;;;;;;;4898722;29;45317;-71
2022/07/05 03:46:18;;;;;;;;;4.25;3.75;;;;;;;;4878473;29;45985;-71
2022/07/05 03:48:43;;;;;;;;;5.25;4.00;;;;;;;;4900296;28;46739;-71
2022/07/05 03:51:08;;;;;;;;;5.00;5.00;;;;;;;;4882373;28;45504;-71
2022/07/05 03:53:33;;;;;;;;;6.25;4.75;;;;;;;;4897693;29;45345;-71
2022/07/05 03:55:59;;;;;;;;;5.50;5.00;;;;;;;;4887018;28;45534;-71
2022/07/05 03:58:24;;;;;;;;;3.00;3.00;;;;;;;;4883208;29;45346;-71
2022/07/05 04:00:49;;;;;;;;;5.00;5.00;;;;;;;;4876138;29;45490;-71
2022/07/05 04:03:14;;;;;;;;;2.67;2.00;;;;;;;;4885124;29;45477;-70
2022/07/05 04:05:41;;;;;;;;;5.33;5.33;;;;;;;;4879664;28;45427;-71
2022/07/05 04:08:06;;;;;;;;;4.00;4.00;;;;;;;;4899882;28;47023;-71
2022/07/05 04:10:31;;;;;;;;;6.25;4.00;;;;;;;;4883547;28;45398;-71
2022/07/05 04:12:57;;;;;;;;;5.00;4.00;;;;;;;;4897020;29;45276;-71
2022/07/05 04:15:22;;;;;;;;;4.75;4.75;;;;;;;;4884770;29;45496;-71
2022/07/05 04:17:54;;;;;;;;;5.00;3.67;;;;;;;;4886919;29;46407;-71
2022/07/05 04:20:24;;;;;;;;;5.00;4.67;;;;;;;;4884465;28;45353;-71
2022/07/05 04:22:49;;;;;;;;;3.00;3.00;;;;;;;;4886595;29;45276;-71
2022/07/05 04:25:18;;;;;;;;;4.33;4.33;;;;;;;;4888644;28;45320;-72
2022/07/05 04:27:44;;;;;;;;;5.33;4.00;;;;;;;;4899719;28;45577;-71
2022/07/05 04:30:10;;;;;;;;;4.00;4.00;;;;;;;;4888249;28;45468;-70
2022/07/05 04:32:35;;;;;;;;;6.75;6.00;;;;;;;;4886794;29;45329;-70
2022/07/05 04:35:00;;;;;;;;;5.00;5.00;;;;;;;;4884866;29;45696;-70
2022/07/05 04:37:26;;;;;;;;;5.33;5.00;;;;;;;;4889997;29;45237;-71
2022/07/05 04:39:51;;;;;;;;;9.25;6.25;;;;;;;;4889430;28;45396;-70
2022/07/05 04:42:16;;;;;;;;;8.00;6.00;;;;;;;;4894574;29;45637;-70
2022/07/05 04:44:41;;;;;;;;;8.25;6.75;;;;;;;;4890415;29;45781;-70
2022/07/05 04:47:06;;;;;;;;;6.00;4.00;;;;;;;;4880436;29;48370;-70
2022/07/05 04:49:31;;;;;;;;;7.00;7.00;;;;;;;;4882912;29;45157;-70
2022/07/05 04:51:57;;;;;;;;;6.00;6.00;;;;;;;;4879916;29;45190;-71
2022/07/05 04:54:22;;;;;;;;;6.75;5.00;;;;;;;;4887553;28;45491;-70
2022/07/05 04:56:47;;;;;;;;;6.00;6.00;;;;;;;;4888416;28;45747;-70
2022/07/05 04:59:12;;;;;;;;;8.33;6.00;;;;;;;;4893717;29;45378;-70
2022/07/05 05:01:38;;;;;;;;;5.75;5.00;;;;;;;;4883354;29;45315;-70
2022/07/05 05:04:03;;;;;;;;;6.33;4.67;;;;;;;;4895546;29;45222;-70
2022/07/05 05:06:28;;;;;;;;;8.25;6.25;;;;;;;;4883756;29;46471;-70
2022/07/05 05:08:53;;;;;;;;;5.00;5.00;;;;;;;;4889199;29;45311;-70
2022/07/05 05:11:18;;;;;;;;;6.50;5.50;;;;;;;;4891827;29;45344;-70
2022/07/05 05:13:45;;;;;;;;;5.67;4.00;;;;;;;;4894834;29;45146;-70
2022/07/05 05:16:10;;;;;;;;;6.00;6.00;;;;;;;;4879840;29;46634;-70
2022/07/05 05:18:35;;;;;;;;;7.33;6.00;;;;;;;;4890631;29;45231;-70
2022/07/05 05:21:01;;;;;;;;;4.67;4.67;;;;;;;;4882199;29;45257;-75
2022/07/05 05:23:26;;;;;;;;;9.00;6.33;;;;;;;;4890205;29;46268;-73
2022/07/05 05:25:51;;;;;;;;;6.33;4.33;;;;;;;;4882374;29;46480;-72
2022/07/05 05:28:16;;;;;;;;;8.00;6.00;;;;;;;;4891344;29;45544;-73
2022/07/05 05:30:42;;;;;;;;;5.67;5.67;;;;;;;;4883063;28;45346;-72
2022/07/05 05:33:07;;;;;;;;;7.00;4.00;;;;;;;;4877241;29;45459;-73
2022/07/05 05:35:32;;;;;;;;;7.00;6.00;;;;;;;;4879199;29;46828;-74
2022/07/05 05:37:57;;;;;;;;;5.00;5.00;;;;;;;;4887891;29;45339;-74
2022/07/05 05:40:24;;;;;;;;;8.00;6.00;;;;;;;;4878906;29;45317;-74
2022/07/05 05:42:51;;;;;;;;;9.00;5.67;;;;;;;;4887335;29;45490;-74
2022/07/05 05:45:17;;;;;;;;;9.00;9.00;;;;;;;;4882109;29;45460;-70
2022/07/05 05:47:43;;;;;;;;;7.67;6.33;;;;;;;;4897128;28;45324;-70
2022/07/05 05:50:08;;;;;;;;;10.75;8.00;;;;;;;;4884114;29;45327;-73
2022/07/05 05:52:33;;;;;;;;;8.00;8.00;;;;;;;;4890036;29;45205;-69
2022/07/05 05:54:58;;;;;;;;;9.50;8.50;;;;;;;;4893928;28;47715;-69
2022/07/05 05:57:24;;;;;;;;;7.00;7.00;;;;;;;;4888916;28;45250;-70
2022/07/05 05:59:49;;;;;;;;;10.75;10.75;;;;;;;;4892918;28;45617;-70
2022/07/05 06:02:14;;;;;;;;;7.00;7.00;;;;;;;;4893883;29;46279;-71
2022/07/05 06:04:39;;;;;;;;;9.67;8.00;;;;;;;;4890599;29;46490;-70
2022/07/05 06:07:04;;;;;;;;;13.25;11.00;;;;;;;;4893099;28;45198;-71
2022/07/05 06:09:30;;;;;;;;;10.75;9.25;;;;;;;;4897232;28;45294;-71
2022/07/05 06:11:55;;;;;;;;;8.00;8.00;;;;;;;;4885152;29;45775;-71
2022/07/05 06:14:20;;;;;;;;;11.00;8.67;;;;;;;;4883835;29;47470;-71
2022/07/05 06:16:45;;;;;;;;;10.33;9.00;;;;;;;;4872018;29;45221;-72
2022/07/05 06:19:10;;;;;;;;;10.00;10.00;;;;;;;;4883170;29;45219;-71
2022/07/05 06:21:35;;;;;;;;;10.00;8.00;;;;;;;;4883540;29;45226;-71
2022/07/05 06:24:01;;;;;;;;;10.67;8.00;;;;;;;;4890141;29;46627;-72
2022/07/05 06:26:26;;;;;;;;;12.00;9.33;;;;;;;;4885323;29;45379;-72
2022/07/05 06:28:51;;;;;;;;;12.33;8.33;;;;;;;;4904881;28;45425;-71
2022/07/05 06:31:16;;;;;;;;;9.33;9.33;;;;;;;;4882599;29;45427;-71
2022/07/05 06:33:41;;;;;;;;;10.67;9.33;;;;;;;;4891776;29;47225;-72
2022/07/05 06:36:07;;;;;;;;;9.33;7.67;;;;;;;;4889387;29;45451;-72
2022/07/05 06:38:32;;;;;;;;;8.67;8.00;;;;;;;;4898969;29;45308;-72
2022/07/05 06:40:59;;;;;;;;;10.67;10.00;;;;;;;;4885088;29;45477;-72
2022/07/05 06:43:25;;;;;;;;;8.33;7.00;;;;;;;;4883470;29;46609;-72
2022/07/05 06:45:51;;;;;;;;;11.33;8.67;;;;;;;;4887832;28;45252;-72
2022/07/05 06:48:16;;;;;;;;;7.00;6.67;;;;;;;;4897506;28;45470;-72
2022/07/05 06:50:42;;;;;;;;;14.00;10.00;;;;;;;;4884363;28;45467;-72
2022/07/05 06:53:08;;;;;;;;;8.00;7.67;;;;;;;;4891647;29;46656;-72
2022/07/05 06:55:33;;;;;;;;;8.00;8.00;;;;;;;;4887272;28;45387;-72
2022/07/05 06:57:59;;;;;;;;;11.33;9.00;;;;;;;;4884534;29;45322;-72
2022/07/05 07:00:25;;;;;;;;;14.00;11.00;;;;;;;;4884553;29;46071;-72
2022/07/05 07:02:50;;;;;;;;;9.00;9.00;;;;;;;;4887289;29;45333;-72
2022/07/05 07:05:15;;;;;;;;;9.00;9.00;;;;;;;;4890303;29;45487;-72
2022/07/05 07:10:25;;;;;;;;;11.33;9.00;;;;;;;;4887108;29;45385;-72
2022/07/05 07:12:50;;;;;;;;;8.00;8.00;;;;;;;;4893219;29;46495;-72
2022/07/05 07:15:15;;;;;;;;;11.67;8.67;;;;;;;;4888884;29;45423;-72
2022/07/05 07:17:40;;;;;;;;;8.00;8.00;;;;;;;;4882494;29;45154;-72
2022/07/05 07:20:06;;;;;;;;;13.00;11.00;;;;;;;;4894204;28;45597;-72
2022/07/05 07:22:31;;;;;;;;;11.00;8.00;;;;;;;;4881102;29;46195;-72
2022/07/05 07:24:56;;;;;;;;;7.33;7.33;;;;;;;;4889406;29;45384;-72
2022/07/05 07:27:21;;;;;;;;;10.33;9.67;;;;;;;;4894266;29;45490;-72
2022/07/05 07:29:46;;;;;;;;;10.67;10.67;;;;;;;;4893447;28;45502;-72
2022/07/05 07:32:12;;;;;;;;;9.00;8.00;;;;;;;;4891639;28;45572;-72
2022/07/05 07:34:37;;;;;;;;;7.33;7.33;;;;;;;;4890570;28;45313;-72
2022/07/05 07:37:03;;;;;;;;;11.00;7.67;;;;;;;;4877323;29;45426;-72
2022/07/05 07:39:28;;;;;;;;;9.00;9.00;;;;;;;;4880949;28;45702;-72
2022/07/05 07:41:54;;;;;;;;;7.67;7.33;;;;;;;;4880696;29;46279;-72
2022/07/05 07:44:19;;;;;;;;;10.67;8.67;;;;;;;;4897028;28;45485;-72
2022/07/05 07:46:45;;;;;;;;;9.33;7.00;;;;;;;;4891017;29;45331;-72
2022/07/05 07:49:10;;;;;;;;;8.33;7.33;;;;;;;;4898516;28;45419;-72
2022/07/05 07:51:36;;;;;;;;;9.33;6.00;;;;;;;;4883096;29;46643;-72
2022/07/05 07:54:01;;;;;;;;;9.67;6.33;;;;;;;;4900950;28;45268;-72
2022/07/05 07:56:27;;;;;;;;;7.00;7.00;;;;;;;;4883352;29;45368;-72
2022/07/05 07:58:52;;;;;;;;;8.00;6.00;;;;;;;;4903509;28;45228;-72
2022/07/05 08:01:17;;;;;;;;;9.00;7.00;;;;;;;;4892667;28;45375;-72
2022/07/05 08:03:43;;;;;;;;;7.00;5.33;;;;;;;;4887898;29;45408;-72
2022/07/05 08:06:10;;;;;;;;;5.67;5.67;;;;;;;;4876461;29;45262;-73
2022/07/05 08:08:35;;;;;;;;;8.33;7.00;;;;;;;;4890687;29;45592;-72
2022/07/05 08:11:01;;;;;;;;;7.67;5.00;;;;;;;;4875100;29;45392;-72
2022/07/05 08:13:26;;;;;;;;;10.67;6.67;;;;;;;;4888445;29;45142;-72
2022/07/05 08:15:51;;;;;;;;;8.75;7.25;;;;;;;;4883577;29;45239;-72
2022/07/05 08:23:44;;;;;;;;;8.25;5.75;;;;;;;;4899016;29;45463;-73
2022/07/05 08:26:10;;;;;;;;;6.75;5.75;;;;;;;;4885434;28;45403;-73
2022/07/05 08:28:35;;;;;;;;;6.00;5.00;;;;;;;;4894238;29;45401;-72
2022/07/05 08:31:00;;;;;;;;;7.00;6.25;;;;;;;;4879106;28;45562;-73
2022/07/05 08:33:25;;;;;;;;;7.25;5.50;;;;;;;;4889155;29;45237;-72
2022/07/05 08:35:50;;;;;;;;;6.50;6.50;;;;;;;;4884245;29;45420;-72
2022/07/05 08:38:16;;;;;;;;;7.75;7.00;;;;;;;;4899439;28;45385;-72
2022/07/05 08:40:45;;;;;;;;;7.00;7.00;;;;;;;;4884309;29;47140;-73
2022/07/05 08:43:10;;;;;;;;;7.00;5.00;;;;;;;;4896369;28;45407;-72
2022/07/05 08:45:36;;;;;;;;;7.50;6.50;;;;;;;;4886008;29;47667;-73
2022/07/05 08:48:03;;;;;;;;;7.50;5.75;;;;;;;;4897247;29;45323;-73
2022/07/05 08:50:29;;;;;;;;;7.50;6.00;;;;;;;;4895088;28;45801;-73
2022/07/05 08:52:55;;;;;;;;;7.25;7.25;;;;;;;;4901133;28;45616;-73
2022/07/05 08:55:21;;;;;;;;;6.50;6.50;;;;;;;;4886750;28;45272;-72
2022/07/05 08:57:46;;;;;;;;;5.75;4.75;;;;;;;;4877928;29;45494;-73
2022/07/05 09:00:12;;;;;;;;;7.25;5.50;;;;;;;;4895375;29;45451;-73
2022/07/05 09:02:37;;;;;;;;;5.25;5.25;;;;;;;;4891445;29;45451;-73
2022/07/05 09:05:04;;;;;;;;;7.00;7.00;;;;;;;;4892158;29;45433;-73
2022/07/05 09:07:32;;;;;;;;;7.00;6.50;;;;;;;;4894063;28;45339;-73
2022/07/05 09:09:59;;;;;;;;;7.75;5.25;;;;;;;;4891291;28;45661;-72
2022/07/05 09:12:24;;;;;;;;;5.40;5.40;;;;;;;;4876120;29;45241;-72
2022/07/05 09:14:50;;;;;;;;;5.50;5.50;;;;;;;;4884301;29;45299;-73
2022/07/05 09:17:15;;;;;;;;;4.00;4.00;;;;;;;;4877185;29;45233;-72
2022/07/05 09:19:41;;;;;;;;;7.25;6.00;;;;;;;;4884146;29;45408;-73
2022/07/05 09:22:08;;;;;;;;;7.75;5.75;;;;;;;;4878384;29;45624;-73
2022/07/05 09:24:42;;;;;;;;;5.20;5.00;;;;;;;;4894426;29;45411;-73
2022/07/05 09:27:07;;;;;;;;;5.20;3.20;;;;;;;;4879164;29;45456;-73
2022/07/05 09:29:32;;;;;;;;;2.50;2.25;;;;;;;;4887408;29;46795;-72
2022/07/05 09:31:58;;;;;;;;;2.50;2.00;;;;;;;;4882577;29;45365;-73
2022/07/05 09:34:23;;;;;;;;;5.00;4.25;;;;;;;;4895021;28;45450;-73
2022/07/05 09:36:49;;;;;;;;;2.75;2.75;;;;;;;;4884980;29;45313;-73
2022/07/05 09:39:14;;;;;;;;;5.00;3.00;;;;;;;;4895789;29;46616;-73
2022/07/05 09:41:39;;;;;;;;;3.25;3.25;;;;;;;;4889783;29;45625;-72
2022/07/05 09:44:05;;;;;;;;;3.50;3.50;;;;;;;;4901542;28;45348;-73
2022/07/05 09:46:30;;;;;;;;;3.75;3.75;;;;;;;;4884118;29;45531;-73
2022/07/05 09:48:56;;;;;;;;;3.75;3.75;;;;;;;;4901867;28;45370;-72
2022/07/05 09:51:21;;;;;;;;;3.75;3.75;;;;;;;;4883820;29;45532;-72
2022/07/05 09:53:50;;;;;;;;;5.75;4.50;;;;;;;;4901964;29;45276;-72
2022/07/05 09:56:15;;;;;;;;;5.20;4.20;;;;;;;;4888123;28;45550;-73
2022/07/05 09:58:41;;;;;;;;;5.00;3.25;;;;;;;;4896508;29;47482;-70
2022/07/05 10:01:25;;;;;;;;;4.25;3.75;;;;;;;;4879346;29;45343;-72
2022/07/05 10:03:51;;;;;;;;;3.80;3.80;;;;;;;;4887589;29;45607;-72
2022/07/05 10:06:17;;;;;;;;;3.00;3.00;;;;;;;;4878948;29;45349;-71
2022/07/05 10:08:43;;;;;;;;;3.00;3.00;;;;;;;;4893451;28;46501;-73
2022/07/05 10:11:08;;;;;;;;;2.40;2.40;;;;;;;;4878013;29;45321;-72
2022/07/05 10:13:34;;;;;;;;;2.00;2.00;;;;;;;;4899622;28;45368;-72
2022/07/05 10:15:59;;;;;;;;;4.00;4.00;;;;;;;;4885178;29;45433;-72
2022/07/05 10:18:31;;;;;;;;;3.75;2.50;;;;;;;;4893611;29;45455;-72
2022/07/05 10:20:59;;;;;;;;;5.00;3.00;;;;;;;;4882405;29;45326;-72
2022/07/05 10:23:24;;;;;;;;;1.80;1.80;;;;;;;;4893990;29;45393;-72
2022/07/05 10:25:49;;;;;;;;;2.25;2.25;;;;;;;;4883953;28;45488;-73
2022/07/05 10:28:15;;;;;;;;;3.75;3.75;;;;;;;;4895133;29;48402;-73
2022/07/05 10:30:44;;;;;;;;;3.50;2.25;;;;;;;;4884473;29;45538;-73
2022/07/05 10:33:10;;;;;;;;;3.00;3.00;;;;;;;;4878563;29;45359;-73
2022/07/05 10:35:35;;;;;;;;;4.25;2.25;;;;;;;;4882209;29;46040;-73
2022/07/05 10:38:02;;;;;;;;;1.50;1.50;;;;;;;;4883852;28;46440;-73
2022/07/05 10:40:29;;;;;;;;;3.40;2.00;;;;;;;;4889040;28;45395;-73
2022/07/05 10:42:56;;;;;;;;;3.80;3.80;;;;;;;;4900215;28;45382;-73
2022/07/05 10:45:22;;;;;;;;;1.80;1.40;;;;;;;;4887943;28;45528;-73
2022/07/05 10:48:14;;;;;;;;;3.20;3.20;;;;;;;;4894170;29;46159;-73
2022/07/05 10:50:47;;;;;;;;;3.20;3.20;;;;;;;;4885891;29;45454;-73
2022/07/05 10:53:13;;;;;;;;;2.80;2.80;;;;;;;;4891875;29;45486;-73
2022/07/05 10:55:51;;;;;;;;;3.25;3.25;;;;;;;;4891903;28;45363;-73
2022/07/05 10:58:18;;;;;;;;;5.40;3.00;;;;;;;;4897942;29;46313;-73
2022/07/05 11:00:43;;;;;;;;;2.00;2.00;;;;;;;;4892186;29;45317;-73
2022/07/05 11:03:27;;;;;;;;;5.25;3.75;;;;;;;;4885139;29;45389;-73
2022/07/05 11:05:53;;;;;;;;;2.60;2.60;;;;;;;;4877870;29;45328;-74
2022/07/05 11:08:18;;;;;;;;;2.80;2.40;;;;;;;;4886103;29;45855;-73
2022/07/05 11:11:07;;;;;;;;;4.00;3.00;;;;;;;;4879813;29;45400;-73
2022/07/05 11:13:36;;;;;;;;;1.80;1.80;;;;;;;;4895138;29;45291;-73
2022/07/05 11:16:20;;;;;;;;;2.40;2.00;;;;;;;;4875281;29;45475;-73
2022/07/05 11:18:45;;;;;;;;;3.20;3.20;;;;;;;;4889363;29;45424;-73
2022/07/05 11:21:20;;;;;;;;;3.00;3.00;;;;;;;;4881609;29;45325;-73
2022/07/05 11:23:46;;;;;;;;;3.00;2.60;;;;;;;;4890949;29;45415;-73
2022/07/05 11:26:12;;;;;;;;;2.00;2.00;;;;;;;;4884564;29;45456;-73
2022/07/05 11:28:45;;;;;;;;;4.00;4.00;;;;;;;;4891562;29;47170;-72
2022/07/05 11:31:10;;;;;;;;;0.60;0.60;;;;;;;;4884475;29;45351;-73
2022/07/05 11:33:43;;;;;;;;;3.00;3.00;;;;;;;;4896374;28;45398;-73
2022/07/05 11:36:21;;;;;;;;;4.00;2.00;;;;;;;;4880283;29;45379;-74
2022/07/05 11:39:20;;;;;;;;;5.00;3.00;;;;;;;;4894152;28;47903;-73
2022/07/05 11:41:48;;;;;;;;;2.40;2.40;;;;;;;;4857664;29;46256;-73
2022/07/05 11:44:14;;;;;;;;;2.80;1.80;;;;;;;;4894402;28;45502;-73
2022/07/05 11:46:43;;;;;;;;;3.00;3.00;;;;;;;;4883842;29;45374;-73
2022/07/05 11:49:08;;;;;;;;;3.00;3.00;;;;;;;;4896922;28;46665;-73
2022/07/05 11:51:33;;;;;;;;;3.00;2.25;;;;;;;;4882856;29;45293;-73
2022/07/05 11:54:01;;;;;;;;;1.50;1.50;;;;;;;;4901264;28;45422;-72
2022/07/05 11:56:26;;;;;;;;;2.00;2.00;;;;;;;;4884281;28;45664;-74
2022/07/05 11:58:51;;;;;;;;;3.25;2.00;;;;;;;;4903042;28;45317;-73
2022/07/05 12:01:17;;;;;;;;;3.50;2.50;;;;;;;;4887138;29;45273;-73
2022/07/05 12:03:52;;;;;;;;;1.50;1.50;;;;;;;;4886868;29;45393;-73
2022/07/05 12:06:17;;;;;;;;;4.60;3.20;;;;;;;;4875785;29;45629;-73
2022/07/05 12:08:42;;;;;;;;;0.50;0.25;;;;;;;;4887503;29;46364;-73
2022/07/05 12:13:55;;;;;;;;;1.80;1.80;;;;;;;;4889215;29;45451;-73
2022/07/05 12:16:20;;;;;;;;;1.75;1.75;;;;;;;;4878148;29;45435;-72
2022/07/05 12:18:46;;;;;;;;;1.25;1.25;;;;;;;;4897376;29;47161;-73
2022/07/05 12:21:13;;;;;;;;;0.80;0.80;;;;;;;;4881164;29;45923;-73
2022/07/05 12:23:40;;;;;;;;;2.40;2.40;;;;;;;;4900757;29;46060;-73
2022/07/05 12:26:06;;;;;;;;;3.60;2.00;;;;;;;;4884316;29;47294;-72
2022/07/05 12:28:31;;;;;;;;;1.25;1.25;;;;;;;;4884217;29;47899;-73
2022/07/05 12:30:57;;;;;;;;;1.00;1.00;;;;;;;;4887484;29;45486;-73
2022/07/05 12:33:23;;;;;;;;;1.60;1.60;;;;;;;;4894131;28;45537;-73
2022/07/05 12:35:50;;;;;;;;;2.00;2.00;;;;;;;;4884169;29;45437;-72
2022/07/05 12:38:19;;;;;;;;;3.00;3.00;;;;;;;;4896786;28;46387;-73
2022/07/05 12:40:49;;;;;;;;;2.00;2.00;;;;;;;;4883582;29;45332;-72
2022/07/05 12:43:14;;;;;;;;;1.80;1.00;;;;;;;;4896767;29;45367;-73
2022/07/05 12:45:40;;;;;;;;;2.50;2.50;;;;;;;;4880340;28;45662;-72
2022/07/05 12:48:07;;;;;;;;;2.20;2.20;;;;;;;;4876386;29;46492;-72
2022/07/05 12:50:46;;;;;;;;;4.40;2.00;;;;;;;;4881581;29;45376;-72
2022/07/05 12:58:45;;;;;;;;;1.60;1.20;;;;;;;;4892760;29;45331;-72
2022/07/05 13:01:20;;;;;;;;;1.50;1.50;;;;;;;;4884643;28;45371;-72
2022/07/05 13:04:05;;;;;;;;;2.20;1.00;;;;;;;;4896341;29;45305;-72
2022/07/05 13:06:50;;;;;;;;;0.60;0.60;;;;;;;;4879171;29;49024;-72
2022/07/05 13:09:29;;;;;;;;;3.00;2.00;;;;;;;;4898653;29;46451;-72
2022/07/05 13:12:07;;;;;;;;;2.20;1.20;;;;;;;;4887091;29;45298;-73
2022/07/05 13:14:33;;;;;;;;;1.00;1.00;;;;;;;;4890099;28;45431;-72
2022/07/05 13:16:58;;;;;;;;;2.00;1.00;;;;;;;;4882825;29;45480;-73
2022/07/05 13:19:23;;;;;;;;;1.00;1.00;;;;;;;;4900540;29;46607;-73
2022/07/05 13:21:48;;;;;;;;;2.00;1.50;;;;;;;;4882289;29;45317;-72
2022/07/05 13:24:14;;;;;;;;;1.00;1.00;;;;;;;;4884328;29;45296;-72
2022/07/05 13:26:39;;;;;;;;;2.25;2.25;;;;;;;;4881350;29;45445;-72
2022/07/05 13:29:04;;;;;;;;;2.50;1.00;;;;;;;;4898936;28;47189;-72
2022/07/05 13:31:30;;;;;;;;;2.00;1.00;;;;;;;;4883064;29;45441;-72
2022/07/05 13:33:55;;;;;;;;;2.20;1.80;;;;;;;;4890359;29;45332;-74
2022/07/05 13:36:20;;;;;;;;;2.25;0.75;;;;;;;;4887829;28;45403;-73
2022/07/05 13:38:46;;;;;;;;;2.00;2.00;;;;;;;;4904752;28;47907;-73
2022/07/05 13:41:11;;;;;;;;;3.00;1.75;;;;;;;;4892960;28;45467;-74
2022/07/05 13:43:37;;;;;;;;;1.00;1.00;;;;;;;;4903810;28;45412;-73
2022/07/05 13:46:03;;;;;;;;;0.00;0.00;;;;;;;;4891485;28;45473;-73
2022/07/05 13:48:28;;;;;;;;;1.50;1.00;;;;;;;;4899117;29;45482;-73
2022/07/05 13:50:53;;;;;;;;;1.00;1.00;;;;;;;;4892902;28;45380;-73
2022/07/05 13:53:20;;;;;;;;;2.00;2.00;;;;;;;;4901194;29;45537;-73
2022/07/05 13:55:45;;;;;;;;;3.80;2.80;;;;;;;;4899011;28;45493;-73
2022/07/05 13:58:11;;;;;;;;;1.00;1.00;;;;;;;;4906278;28;46308;-73
2022/07/05 14:00:36;;;;;;;;;1.00;1.00;;;;;;;;4893721;28;45322;-73
2022/07/05 14:03:02;;;;;;;;;2.25;2.00;;;;;;;;4897637;29;45229;-73
2022/07/05 14:05:27;;;;;;;;;2.00;2.00;;;;;;;;4893551;28;46032;-73
2022/07/05 14:07:52;;;;;;;;;2.25;1.75;;;;;;;;4894807;28;45390;-71
2022/07/05 14:10:17;;;;;;;;;2.25;2.25;;;;;;;;4888631;29;46194;-74
2022/07/05 14:12:42;;;;;;;;;3.00;1.50;;;;;;;;4905561;28;45521;-72
2022/07/05 14:15:08;;;;;;;;;2.25;1.75;;;;;;;;4889731;29;46127;-72
2022/07/05 14:17:33;;;;;;;;;2.00;1.25;;;;;;;;4891014;29;45448;-73
2022/07/05 14:19:59;;;;;;;;;0.50;0.50;;;;;;;;4895358;28;45374;-73
2022/07/05 14:22:24;;;;;;;;;2.00;1.50;;;;;;;;4891327;29;45265;-73
2022/07/05 14:24:49;;;;;;;;;1.00;1.00;;;;;;;;4896722;28;45467;-74
2022/07/05 14:27:14;;;;;;;;;1.00;1.00;;;;;;;;4890981;29;46761;-73
2022/07/05 14:29:40;;;;;;;;;2.00;2.00;;;;;;;;4885188;29;45293;-74
2022/07/05 14:32:05;;;;;;;;;2.00;1.25;;;;;;;;4875035;29;45403;-74
2022/07/05 14:34:30;;;;;;;;;0.50;0.50;;;;;;;;4886003;29;45667;-73
2022/07/05 14:36:56;;;;;;;;;0.75;0.75;;;;;;;;4878670;29;45580;-73
2022/07/05 14:39:21;;;;;;;;;2.25;2.00;;;;;;;;4903763;28;45338;-74
2022/07/05 14:41:46;;;;;;;;;4.75;2.00;;;;;;;;4888831;29;45376;-74
2022/07/05 14:44:12;;;;;;;;;1.50;1.00;;;;;;;;4901773;28;47189;-74
2022/07/05 14:46:38;;;;;;;;;1.00;1.00;;;;;;;;4892450;29;45704;-74
2022/07/05 14:49:03;;;;;;;;;3.00;0.25;;;;;;;;4887883;29;46242;-73
2022/07/05 14:51:28;;;;;;;;;2.25;2.25;;;;;;;;4884831;29;45403;-74